sensor_id;sensor_type;location;lat;lon;timestamp;P1;durP1;ratioP1;P2;durP2;ratioP2
49241;SDS011;35079;52.704;13.814;2023-12-20T00:00:40;10.38;;;5.72;;
49241;SDS011;35079;52.704;13.814;2023-12-20T00:03:05;6.38;;;4.90;;
49241;SDS011;35079;52.704;13.814;2023-12-20T00:05:31;7.55;;;4.90;;
49241;SDS011;35079;52.704;13.814;2023-12-20T00:08:00;6.78;;;4.93;;
49241;SDS011;35079;52.704;13.814;2023-12-20T00:10:26;6.55;;;5.20;;
49241;SDS011;35079;52.704;13.814;2023-12-20T00:12:51;5.88;;;4.68;;
49241;SDS011;35079;52.704;13.814;2023-12-20T00:15:17;5.40;;;4.90;;
49241;SDS011;35079;52.704;13.814;2023-12-20T00:17:43;6.80;;;5.43;;
49241;SDS011;35079;52.704;13.814;2023-12-20T00:20:08;5.78;;;5.18;;
49241;SDS011;35079;52.704;13.814;2023-12-20T00:22:34;7.10;;;5.07;;
49241;SDS011;35079;52.704;13.814;2023-12-20T00:25:00;5.65;;;4.50;;
49241;SDS011;35079;52.704;13.814;2023-12-20T00:27:25;7.72;;;4.80;;
49241;SDS011;35079;52.704;13.814;2023-12-20T00:29:51;5.43;;;4.28;;
49241;SDS011;35079;52.704;13.814;2023-12-20T00:32:16;5.13;;;4.35;;
49241;SDS011;35079;52.704;13.814;2023-12-20T00:34:43;6.57;;;4.30;;
49241;SDS011;35079;52.704;13.814;2023-12-20T00:37:09;5.07;;;3.90;;
49241;SDS011;35079;52.704;13.814;2023-12-20T00:39:34;6.85;;;4.43;;
49241;SDS011;35079;52.704;13.814;2023-12-20T00:42:00;5.63;;;4.50;;
49241;SDS011;35079;52.704;13.814;2023-12-20T00:44:25;7.05;;;4.63;;
49241;SDS011;35079;52.704;13.814;2023-12-20T00:46:51;5.75;;;4.72;;
49241;SDS011;35079;52.704;13.814;2023-12-20T00:49:17;5.00;;;4.22;;
49241;SDS011;35079;52.704;13.814;2023-12-20T00:51:42;7.72;;;4.20;;
49241;SDS011;35079;52.704;13.814;2023-12-20T00:54:08;8.80;;;4.60;;
49241;SDS011;35079;52.704;13.814;2023-12-20T00:56:34;5.15;;;4.22;;
49241;SDS011;35079;52.704;13.814;2023-12-20T00:59:00;5.70;;;4.05;;
49241;SDS011;35079;52.704;13.814;2023-12-20T01:01:25;4.38;;;3.83;;
49241;SDS011;35079;52.704;13.814;2023-12-20T01:03:51;4.63;;;4.00;;
49241;SDS011;35079;52.704;13.814;2023-12-20T01:06:17;5.20;;;3.65;;
49241;SDS011;35079;52.704;13.814;2023-12-20T01:08:43;6.25;;;4.43;;
49241;SDS011;35079;52.704;13.814;2023-12-20T01:11:09;7.03;;;3.92;;
49241;SDS011;35079;52.704;13.814;2023-12-20T01:13:34;4.85;;;3.83;;
49241;SDS011;35079;52.704;13.814;2023-12-20T01:16:00;4.63;;;3.80;;
49241;SDS011;35079;52.704;13.814;2023-12-20T01:18:26;5.35;;;3.67;;
49241;SDS011;35079;52.704;13.814;2023-12-20T01:20:52;4.68;;;3.10;;
49241;SDS011;35079;52.704;13.814;2023-12-20T01:23:17;5.43;;;3.55;;
49241;SDS011;35079;52.704;13.814;2023-12-20T01:25:43;4.88;;;4.05;;
49241;SDS011;35079;52.704;13.814;2023-12-20T01:28:08;4.35;;;3.70;;
49241;SDS011;35079;52.704;13.814;2023-12-20T01:30:34;5.65;;;4.35;;
49241;SDS011;35079;52.704;13.814;2023-12-20T01:33:00;4.90;;;3.80;;
49241;SDS011;35079;52.704;13.814;2023-12-20T01:35:26;5.68;;;3.45;;
49241;SDS011;35079;52.704;13.814;2023-12-20T01:37:52;3.30;;;2.97;;
49241;SDS011;35079;52.704;13.814;2023-12-20T01:40:21;3.42;;;3.13;;
49241;SDS011;35079;52.704;13.814;2023-12-20T01:42:47;3.17;;;2.55;;
49241;SDS011;35079;52.704;13.814;2023-12-20T01:45:13;3.17;;;2.75;;
49241;SDS011;35079;52.704;13.814;2023-12-20T01:47:39;3.88;;;2.75;;
49241;SDS011;35079;52.704;13.814;2023-12-20T01:50:04;3.53;;;2.70;;
49241;SDS011;35079;52.704;13.814;2023-12-20T01:52:32;2.50;;;2.30;;
49241;SDS011;35079;52.704;13.814;2023-12-20T01:54:59;2.80;;;2.40;;
49241;SDS011;35079;52.704;13.814;2023-12-20T01:57:27;3.28;;;2.70;;
49241;SDS011;35079;52.704;13.814;2023-12-20T01:59:53;5.35;;;2.85;;
49241;SDS011;35079;52.704;13.814;2023-12-20T02:02:19;3.85;;;2.80;;
49241;SDS011;35079;52.704;13.814;2023-12-20T02:04:45;2.45;;;2.20;;
49241;SDS011;35079;52.704;13.814;2023-12-20T02:07:12;5.40;;;2.80;;
49241;SDS011;35079;52.704;13.814;2023-12-20T02:09:38;5.85;;;2.60;;
49241;SDS011;35079;52.704;13.814;2023-12-20T02:12:05;2.65;;;2.45;;
49241;SDS011;35079;52.704;13.814;2023-12-20T02:14:30;3.28;;;2.83;;
49241;SDS011;35079;52.704;13.814;2023-12-20T02:16:56;3.50;;;3.20;;
49241;SDS011;35079;52.704;13.814;2023-12-20T02:19:22;3.17;;;2.88;;
49241;SDS011;35079;52.704;13.814;2023-12-20T02:21:47;5.90;;;3.35;;
49241;SDS011;35079;52.704;13.814;2023-12-20T02:24:13;3.30;;;2.65;;
49241;SDS011;35079;52.704;13.814;2023-12-20T02:26:38;3.15;;;2.78;;
49241;SDS011;35079;52.704;13.814;2023-12-20T02:29:05;4.22;;;3.50;;
49241;SDS011;35079;52.704;13.814;2023-12-20T02:31:30;4.35;;;3.45;;
49241;SDS011;35079;52.704;13.814;2023-12-20T02:33:56;7.53;;;3.63;;
49241;SDS011;35079;52.704;13.814;2023-12-20T02:36:22;7.60;;;3.53;;
49241;SDS011;35079;52.704;13.814;2023-12-20T02:38:47;4.78;;;3.10;;
49241;SDS011;35079;52.704;13.814;2023-12-20T02:41:13;4.32;;;3.00;;
49241;SDS011;35079;52.704;13.814;2023-12-20T02:43:41;5.85;;;3.30;;
49241;SDS011;35079;52.704;13.814;2023-12-20T02:46:07;7.00;;;3.10;;
49241;SDS011;35079;52.704;13.814;2023-12-20T02:48:33;6.30;;;3.05;;
49241;SDS011;35079;52.704;13.814;2023-12-20T02:50:58;4.95;;;2.50;;
49241;SDS011;35079;52.704;13.814;2023-12-20T02:53:24;5.05;;;2.53;;
49241;SDS011;35079;52.704;13.814;2023-12-20T02:55:50;5.53;;;2.67;;
49241;SDS011;35079;52.704;13.814;2023-12-20T02:58:15;7.28;;;2.45;;
49241;SDS011;35079;52.704;13.814;2023-12-20T03:00:42;6.53;;;2.70;;
49241;SDS011;35079;52.704;13.814;2023-12-20T03:03:08;9.73;;;2.60;;
49241;SDS011;35079;52.704;13.814;2023-12-20T03:05:33;3.83;;;2.47;;
49241;SDS011;35079;52.704;13.814;2023-12-20T03:07:59;3.72;;;2.50;;
49241;SDS011;35079;52.704;13.814;2023-12-20T03:10:25;4.15;;;2.03;;
49241;SDS011;35079;52.704;13.814;2023-12-20T03:12:50;5.07;;;2.67;;
49241;SDS011;35079;52.704;13.814;2023-12-20T03:15:16;6.40;;;2.83;;
49241;SDS011;35079;52.704;13.814;2023-12-20T03:17:41;9.35;;;2.55;;
49241;SDS011;35079;52.704;13.814;2023-12-20T03:20:07;5.75;;;2.70;;
49241;SDS011;35079;52.704;13.814;2023-12-20T03:22:33;4.82;;;2.67;;
49241;SDS011;35079;52.704;13.814;2023-12-20T03:24:59;8.43;;;2.50;;
49241;SDS011;35079;52.704;13.814;2023-12-20T03:27:25;5.18;;;2.30;;
49241;SDS011;35079;52.704;13.814;2023-12-20T03:29:51;5.65;;;2.53;;
49241;SDS011;35079;52.704;13.814;2023-12-20T03:32:16;3.85;;;2.80;;
49241;SDS011;35079;52.704;13.814;2023-12-20T03:34:42;5.60;;;2.95;;
49241;SDS011;35079;52.704;13.814;2023-12-20T03:37:07;7.53;;;3.15;;
49241;SDS011;35079;52.704;13.814;2023-12-20T03:39:33;5.50;;;2.97;;
49241;SDS011;35079;52.704;13.814;2023-12-20T03:41:59;4.28;;;3.08;;
49241;SDS011;35079;52.704;13.814;2023-12-20T03:44:24;7.80;;;2.92;;
49241;SDS011;35079;52.704;13.814;2023-12-20T03:46:50;7.30;;;3.25;;
49241;SDS011;35079;52.704;13.814;2023-12-20T03:49:15;5.50;;;2.97;;
49241;SDS011;35079;52.704;13.814;2023-12-20T03:51:41;6.95;;;3.50;;
49241;SDS011;35079;52.704;13.814;2023-12-20T03:54:07;5.20;;;3.65;;
49241;SDS011;35079;52.704;13.814;2023-12-20T03:56:33;8.68;;;3.55;;
49241;SDS011;35079;52.704;13.814;2023-12-20T03:58:58;10.02;;;3.70;;
49241;SDS011;35079;52.704;13.814;2023-12-20T04:01:24;14.38;;;4.43;;
49241;SDS011;35079;52.704;13.814;2023-12-20T04:03:50;8.43;;;3.67;;
49241;SDS011;35079;52.704;13.814;2023-12-20T04:06:19;8.38;;;3.35;;
49241;SDS011;35079;52.704;13.814;2023-12-20T04:08:45;11.27;;;3.70;;
49241;SDS011;35079;52.704;13.814;2023-12-20T04:11:10;7.60;;;4.00;;
49241;SDS011;35079;52.704;13.814;2023-12-20T04:13:36;7.38;;;3.08;;
49241;SDS011;35079;52.704;13.814;2023-12-20T04:16:01;5.30;;;2.90;;
49241;SDS011;35079;52.704;13.814;2023-12-20T04:18:27;8.90;;;2.75;;
49241;SDS011;35079;52.704;13.814;2023-12-20T04:20:53;10.35;;;2.80;;
49241;SDS011;35079;52.704;13.814;2023-12-20T04:23:19;8.70;;;2.67;;
49241;SDS011;35079;52.704;13.814;2023-12-20T04:25:44;13.52;;;3.20;;
49241;SDS011;35079;52.704;13.814;2023-12-20T04:28:10;8.48;;;2.45;;
49241;SDS011;35079;52.704;13.814;2023-12-20T04:30:35;12.90;;;2.70;;
49241;SDS011;35079;52.704;13.814;2023-12-20T04:33:01;14.05;;;2.75;;
49241;SDS011;35079;52.704;13.814;2023-12-20T04:35:27;17.08;;;2.40;;
49241;SDS011;35079;52.704;13.814;2023-12-20T04:37:53;7.10;;;2.47;;
49241;SDS011;35079;52.704;13.814;2023-12-20T04:40:18;9.43;;;2.30;;
49241;SDS011;35079;52.704;13.814;2023-12-20T04:42:45;5.43;;;2.13;;
49241;SDS011;35079;52.704;13.814;2023-12-20T04:45:10;11.90;;;2.65;;
49241;SDS011;35079;52.704;13.814;2023-12-20T04:47:38;8.25;;;1.98;;
49241;SDS011;35079;52.704;13.814;2023-12-20T04:50:04;9.82;;;2.05;;
49241;SDS011;35079;52.704;13.814;2023-12-20T04:52:30;11.18;;;2.40;;
49241;SDS011;35079;52.704;13.814;2023-12-20T04:54:56;6.68;;;2.28;;
49241;SDS011;35079;52.704;13.814;2023-12-20T04:57:21;7.18;;;2.30;;
49241;SDS011;35079;52.704;13.814;2023-12-20T04:59:47;11.18;;;2.25;;
49241;SDS011;35079;52.704;13.814;2023-12-20T05:02:12;5.97;;;1.83;;
49241;SDS011;35079;52.704;13.814;2023-12-20T05:04:38;8.00;;;1.90;;
49241;SDS011;35079;52.704;13.814;2023-12-20T05:07:03;10.63;;;2.35;;
49241;SDS011;35079;52.704;13.814;2023-12-20T05:09:30;14.15;;;2.70;;
49241;SDS011;35079;52.704;13.814;2023-12-20T05:11:55;10.25;;;2.38;;
49241;SDS011;35079;52.704;13.814;2023-12-20T05:14:21;9.90;;;2.28;;
49241;SDS011;35079;52.704;13.814;2023-12-20T05:16:46;13.77;;;2.50;;
49241;SDS011;35079;52.704;13.814;2023-12-20T05:19:12;17.45;;;2.78;;
49241;SDS011;35079;52.704;13.814;2023-12-20T05:21:39;11.32;;;2.22;;
49241;SDS011;35079;52.704;13.814;2023-12-20T05:24:04;11.15;;;2.13;;
49241;SDS011;35079;52.704;13.814;2023-12-20T05:26:30;13.50;;;2.03;;
49241;SDS011;35079;52.704;13.814;2023-12-20T05:28:56;11.68;;;1.95;;
49241;SDS011;35079;52.704;13.814;2023-12-20T05:31:21;13.18;;;1.90;;
49241;SDS011;35079;52.704;13.814;2023-12-20T05:33:47;8.40;;;1.67;;
49241;SDS011;35079;52.704;13.814;2023-12-20T05:36:12;18.70;;;2.10;;
49241;SDS011;35079;52.704;13.814;2023-12-20T05:38:40;12.25;;;2.13;;
49241;SDS011;35079;52.704;13.814;2023-12-20T05:41:05;9.15;;;1.85;;
49241;SDS011;35079;52.704;13.814;2023-12-20T05:43:31;14.40;;;1.95;;
49241;SDS011;35079;52.704;13.814;2023-12-20T05:45:57;11.00;;;1.85;;
49241;SDS011;35079;52.704;13.814;2023-12-20T05:48:23;12.02;;;1.70;;
49241;SDS011;35079;52.704;13.814;2023-12-20T05:50:48;12.32;;;1.65;;
49241;SDS011;35079;52.704;13.814;2023-12-20T05:53:14;12.48;;;1.73;;
49241;SDS011;35079;52.704;13.814;2023-12-20T05:55:40;10.98;;;1.95;;
49241;SDS011;35079;52.704;13.814;2023-12-20T05:58:05;13.27;;;2.13;;
49241;SDS011;35079;52.704;13.814;2023-12-20T06:00:31;9.98;;;2.13;;
49241;SDS011;35079;52.704;13.814;2023-12-20T06:02:56;13.32;;;1.83;;
49241;SDS011;35079;52.704;13.814;2023-12-20T06:05:22;8.32;;;2.10;;
49241;SDS011;35079;52.704;13.814;2023-12-20T06:07:48;13.55;;;1.80;;
49241;SDS011;35079;52.704;13.814;2023-12-20T06:10:15;16.30;;;2.00;;
49241;SDS011;35079;52.704;13.814;2023-12-20T06:12:41;14.70;;;2.45;;
49241;SDS011;35079;52.704;13.814;2023-12-20T06:15:07;11.07;;;1.83;;
49241;SDS011;35079;52.704;13.814;2023-12-20T06:17:33;13.43;;;2.42;;
49241;SDS011;35079;52.704;13.814;2023-12-20T06:19:59;16.50;;;2.70;;
49241;SDS011;35079;52.704;13.814;2023-12-20T06:22:25;13.70;;;3.00;;
49241;SDS011;35079;52.704;13.814;2023-12-20T06:24:51;10.70;;;2.38;;
49241;SDS011;35079;52.704;13.814;2023-12-20T06:27:17;11.25;;;2.88;;
49241;SDS011;35079;52.704;13.814;2023-12-20T06:29:42;21.45;;;2.63;;
49241;SDS011;35079;52.704;13.814;2023-12-20T06:32:10;13.88;;;2.15;;
49241;SDS011;35079;52.704;13.814;2023-12-20T06:34:35;11.60;;;2.13;;
49241;SDS011;35079;52.704;13.814;2023-12-20T06:37:01;9.95;;;1.77;;
49241;SDS011;35079;52.704;13.814;2023-12-20T06:39:27;11.50;;;1.50;;
49241;SDS011;35079;52.704;13.814;2023-12-20T06:41:53;17.70;;;2.25;;
49241;SDS011;35079;52.704;13.814;2023-12-20T06:44:18;12.52;;;2.05;;
49241;SDS011;35079;52.704;13.814;2023-12-20T06:46:44;9.63;;;2.08;;
49241;SDS011;35079;52.704;13.814;2023-12-20T06:49:09;11.70;;;1.85;;
49241;SDS011;35079;52.704;13.814;2023-12-20T06:51:35;7.95;;;2.25;;
49241;SDS011;35079;52.704;13.814;2023-12-20T06:54:01;10.48;;;1.55;;
49241;SDS011;35079;52.704;13.814;2023-12-20T06:56:27;10.23;;;1.85;;
49241;SDS011;35079;52.704;13.814;2023-12-20T06:58:53;11.45;;;2.35;;
49241;SDS011;35079;52.704;13.814;2023-12-20T07:01:18;9.10;;;1.75;;
49241;SDS011;35079;52.704;13.814;2023-12-20T07:03:44;8.98;;;1.50;;
49241;SDS011;35079;52.704;13.814;2023-12-20T07:06:10;9.88;;;1.50;;
49241;SDS011;35079;52.704;13.814;2023-12-20T07:08:36;12.90;;;2.00;;
49241;SDS011;35079;52.704;13.814;2023-12-20T07:11:01;12.90;;;2.22;;
49241;SDS011;35079;52.704;13.814;2023-12-20T07:13:27;10.13;;;1.70;;
49241;SDS011;35079;52.704;13.814;2023-12-20T07:15:53;9.27;;;1.75;;
49241;SDS011;35079;52.704;13.814;2023-12-20T07:18:18;11.30;;;1.95;;
49241;SDS011;35079;52.704;13.814;2023-12-20T07:20:44;11.40;;;1.73;;
49241;SDS011;35079;52.704;13.814;2023-12-20T07:23:10;10.80;;;2.10;;
49241;SDS011;35079;52.704;13.814;2023-12-20T07:25:35;11.30;;;2.05;;
49241;SDS011;35079;52.704;13.814;2023-12-20T07:28:01;9.00;;;2.15;;
49241;SDS011;35079;52.704;13.814;2023-12-20T07:30:26;13.93;;;2.15;;
49241;SDS011;35079;52.704;13.814;2023-12-20T07:32:53;9.98;;;2.30;;
49241;SDS011;35079;52.704;13.814;2023-12-20T07:35:18;16.52;;;2.38;;
49241;SDS011;35079;52.704;13.814;2023-12-20T07:37:44;10.18;;;1.88;;
49241;SDS011;35079;52.704;13.814;2023-12-20T07:40:09;11.77;;;2.63;;
49241;SDS011;35079;52.704;13.814;2023-12-20T07:42:35;8.68;;;2.25;;
49241;SDS011;35079;52.704;13.814;2023-12-20T07:45:01;9.82;;;2.67;;
49241;SDS011;35079;52.704;13.814;2023-12-20T07:47:27;9.57;;;2.30;;
49241;SDS011;35079;52.704;13.814;2023-12-20T07:49:53;7.07;;;2.45;;
49241;SDS011;35079;52.704;13.814;2023-12-20T07:52:18;14.25;;;2.58;;
49241;SDS011;35079;52.704;13.814;2023-12-20T07:54:44;11.68;;;2.33;;
49241;SDS011;35079;52.704;13.814;2023-12-20T07:57:11;9.43;;;2.22;;
49241;SDS011;35079;52.704;13.814;2023-12-20T07:59:37;16.45;;;3.40;;
49241;SDS011;35079;52.704;13.814;2023-12-20T08:02:03;11.57;;;2.55;;
49241;SDS011;35079;52.704;13.814;2023-12-20T08:04:28;12.43;;;2.70;;
49241;SDS011;35079;52.704;13.814;2023-12-20T08:06:54;10.00;;;2.78;;
49241;SDS011;35079;52.704;13.814;2023-12-20T08:09:20;11.52;;;3.17;;
49241;SDS011;35079;52.704;13.814;2023-12-20T08:11:49;10.80;;;2.50;;
49241;SDS011;35079;52.704;13.814;2023-12-20T08:14:15;13.77;;;2.60;;
49241;SDS011;35079;52.704;13.814;2023-12-20T08:16:41;11.65;;;3.03;;
49241;SDS011;35079;52.704;13.814;2023-12-20T08:19:06;14.13;;;2.85;;
49241;SDS011;35079;52.704;13.814;2023-12-20T08:21:32;12.90;;;2.47;;
49241;SDS011;35079;52.704;13.814;2023-12-20T08:23:58;10.77;;;2.45;;
49241;SDS011;35079;52.704;13.814;2023-12-20T08:26:25;13.23;;;3.00;;
49241;SDS011;35079;52.704;13.814;2023-12-20T08:28:51;10.82;;;2.67;;
49241;SDS011;35079;52.704;13.814;2023-12-20T08:31:17;13.30;;;2.90;;
49241;SDS011;35079;52.704;13.814;2023-12-20T08:33:44;10.10;;;3.13;;
49241;SDS011;35079;52.704;13.814;2023-12-20T08:36:10;15.55;;;2.53;;
49241;SDS011;35079;52.704;13.814;2023-12-20T08:38:36;14.60;;;2.70;;
49241;SDS011;35079;52.704;13.814;2023-12-20T08:41:01;7.07;;;2.60;;
49241;SDS011;35079;52.704;13.814;2023-12-20T08:43:28;21.27;;;2.75;;
49241;SDS011;35079;52.704;13.814;2023-12-20T08:45:54;13.70;;;2.30;;
49241;SDS011;35079;52.704;13.814;2023-12-20T08:48:19;12.68;;;2.50;;
49241;SDS011;35079;52.704;13.814;2023-12-20T08:50:45;7.30;;;2.20;;
49241;SDS011;35079;52.704;13.814;2023-12-20T08:53:12;13.15;;;2.80;;
49241;SDS011;35079;52.704;13.814;2023-12-20T08:55:37;13.38;;;2.67;;
49241;SDS011;35079;52.704;13.814;2023-12-20T08:58:03;16.38;;;2.42;;
49241;SDS011;35079;52.704;13.814;2023-12-20T09:00:29;11.93;;;2.30;;
49241;SDS011;35079;52.704;13.814;2023-12-20T09:02:54;9.73;;;2.35;;
49241;SDS011;35079;52.704;13.814;2023-12-20T09:05:20;10.88;;;2.17;;
49241;SDS011;35079;52.704;13.814;2023-12-20T09:07:46;11.23;;;2.38;;
49241;SDS011;35079;52.704;13.814;2023-12-20T09:10:11;9.48;;;2.10;;
49241;SDS011;35079;52.704;13.814;2023-12-20T09:12:37;9.70;;;2.42;;
49241;SDS011;35079;52.704;13.814;2023-12-20T09:15:05;12.73;;;2.97;;
49241;SDS011;35079;52.704;13.814;2023-12-20T09:17:31;11.57;;;2.60;;
49241;SDS011;35079;52.704;13.814;2023-12-20T09:19:56;14.05;;;2.60;;
49241;SDS011;35079;52.704;13.814;2023-12-20T09:22:22;8.70;;;2.22;;
49241;SDS011;35079;52.704;13.814;2023-12-20T09:24:48;9.90;;;2.47;;
49241;SDS011;35079;52.704;13.814;2023-12-20T09:27:14;9.35;;;2.38;;
49241;SDS011;35079;52.704;13.814;2023-12-20T09:29:39;11.55;;;2.33;;
49241;SDS011;35079;52.704;13.814;2023-12-20T09:32:07;10.05;;;2.22;;
49241;SDS011;35079;52.704;13.814;2023-12-20T09:34:33;11.77;;;2.30;;
49241;SDS011;35079;52.704;13.814;2023-12-20T09:36:59;13.38;;;2.60;;
49241;SDS011;35079;52.704;13.814;2023-12-20T09:39:24;13.57;;;2.10;;
49241;SDS011;35079;52.704;13.814;2023-12-20T09:41:59;10.52;;;2.05;;
49241;SDS011;35079;52.704;13.814;2023-12-20T09:44:27;10.68;;;2.22;;
49241;SDS011;35079;52.704;13.814;2023-12-20T09:46:53;11.80;;;2.63;;
49241;SDS011;35079;52.704;13.814;2023-12-20T09:49:20;9.70;;;2.00;;
49241;SDS011;35079;52.704;13.814;2023-12-20T09:51:47;11.60;;;2.30;;
49241;SDS011;35079;52.704;13.814;2023-12-20T09:54:14;9.98;;;2.08;;
49241;SDS011;35079;52.704;13.814;2023-12-20T09:56:42;10.23;;;2.28;;
49241;SDS011;35079;52.704;13.814;2023-12-20T09:59:08;13.73;;;2.40;;
49241;SDS011;35079;52.704;13.814;2023-12-20T10:01:34;8.65;;;2.10;;
49241;SDS011;35079;52.704;13.814;2023-12-20T10:04:00;10.50;;;2.38;;
49241;SDS011;35079;52.704;13.814;2023-12-20T10:06:31;13.38;;;2.10;;
49241;SDS011;35079;52.704;13.814;2023-12-20T10:08:57;16.17;;;2.05;;
49241;SDS011;35079;52.704;13.814;2023-12-20T10:11:23;9.32;;;1.98;;
49241;SDS011;35079;52.704;13.814;2023-12-20T10:13:49;15.05;;;3.00;;
49241;SDS011;35079;52.704;13.814;2023-12-20T10:16:15;12.60;;;2.03;;
49241;SDS011;35079;52.704;13.814;2023-12-20T10:18:41;10.18;;;2.63;;
49241;SDS011;35079;52.704;13.814;2023-12-20T10:21:06;13.93;;;2.50;;
49241;SDS011;35079;52.704;13.814;2023-12-20T10:23:36;12.95;;;1.98;;
49241;SDS011;35079;52.704;13.814;2023-12-20T10:26:02;11.45;;;1.80;;
49241;SDS011;35079;52.704;13.814;2023-12-20T10:28:28;12.52;;;2.65;;
49241;SDS011;35079;52.704;13.814;2023-12-20T10:30:59;11.32;;;2.30;;
49241;SDS011;35079;52.704;13.814;2023-12-20T10:33:27;14.23;;;1.80;;
49241;SDS011;35079;52.704;13.814;2023-12-20T10:35:54;13.10;;;1.85;;
49241;SDS011;35079;52.704;13.814;2023-12-20T10:38:20;10.95;;;2.20;;
49241;SDS011;35079;52.704;13.814;2023-12-20T10:40:47;15.15;;;2.75;;
49241;SDS011;35079;52.704;13.814;2023-12-20T10:43:12;12.57;;;2.10;;
49241;SDS011;35079;52.704;13.814;2023-12-20T10:45:40;14.32;;;2.17;;
49241;SDS011;35079;52.704;13.814;2023-12-20T10:48:07;15.10;;;2.30;;
49241;SDS011;35079;52.704;13.814;2023-12-20T10:50:37;12.25;;;2.28;;
49241;SDS011;35079;52.704;13.814;2023-12-20T10:53:06;17.67;;;2.75;;
49241;SDS011;35079;52.704;13.814;2023-12-20T10:55:32;13.68;;;2.40;;
49241;SDS011;35079;52.704;13.814;2023-12-20T10:58:03;17.67;;;2.60;;
49241;SDS011;35079;52.704;13.814;2023-12-20T11:00:32;11.60;;;2.20;;
49241;SDS011;35079;52.704;13.814;2023-12-20T11:03:08;10.85;;;2.10;;
49241;SDS011;35079;52.704;13.814;2023-12-20T11:08:03;12.10;;;2.20;;
49241;SDS011;35079;52.704;13.814;2023-12-20T11:13:48;7.45;;;2.40;;
49241;SDS011;35079;52.704;13.814;2023-12-20T11:16:24;11.70;;;2.13;;
49241;SDS011;35079;52.704;13.814;2023-12-20T11:18:50;10.95;;;2.13;;
49241;SDS011;35079;52.704;13.814;2023-12-20T11:21:16;11.52;;;2.25;;
49241;SDS011;35079;52.704;13.814;2023-12-20T11:23:44;12.45;;;2.22;;
49241;SDS011;35079;52.704;13.814;2023-12-20T11:26:09;12.25;;;2.22;;
49241;SDS011;35079;52.704;13.814;2023-12-20T11:28:35;13.10;;;2.45;;
49241;SDS011;35079;52.704;13.814;2023-12-20T11:31:04;10.88;;;2.38;;
49241;SDS011;35079;52.704;13.814;2023-12-20T11:33:36;13.88;;;2.45;;
49241;SDS011;35079;52.704;13.814;2023-12-20T11:36:03;13.00;;;2.25;;
49241;SDS011;35079;52.704;13.814;2023-12-20T11:41:05;12.00;;;2.08;;
49241;SDS011;35079;52.704;13.814;2023-12-20T11:43:35;8.80;;;2.28;;
49241;SDS011;35079;52.704;13.814;2023-12-20T11:48:31;14.70;;;2.78;;
49241;SDS011;35079;52.704;13.814;2023-12-20T11:50:58;12.43;;;2.03;;
49241;SDS011;35079;52.704;13.814;2023-12-20T11:53:24;9.85;;;2.20;;
49241;SDS011;35079;52.704;13.814;2023-12-20T11:55:51;17.08;;;2.53;;
49241;SDS011;35079;52.704;13.814;2023-12-20T11:58:17;15.15;;;2.35;;
49241;SDS011;35079;52.704;13.814;2023-12-20T12:00:42;11.57;;;2.53;;
49241;SDS011;35079;52.704;13.814;2023-12-20T12:03:08;11.52;;;2.60;;
49241;SDS011;35079;52.704;13.814;2023-12-20T12:05:34;9.57;;;2.58;;
49241;SDS011;35079;52.704;13.814;2023-12-20T12:08:01;14.02;;;2.08;;
49241;SDS011;35079;52.704;13.814;2023-12-20T12:10:28;7.97;;;2.10;;
49241;SDS011;35079;52.704;13.814;2023-12-20T12:12:54;12.15;;;2.60;;
49241;SDS011;35079;52.704;13.814;2023-12-20T12:15:27;10.93;;;2.20;;
49241;SDS011;35079;52.704;13.814;2023-12-20T12:17:54;12.40;;;2.42;;
49241;SDS011;35079;52.704;13.814;2023-12-20T12:20:21;13.98;;;2.92;;
49241;SDS011;35079;52.704;13.814;2023-12-20T12:22:57;16.20;;;2.58;;
49241;SDS011;35079;52.704;13.814;2023-12-20T12:25:24;11.10;;;2.35;;
49241;SDS011;35079;52.704;13.814;2023-12-20T12:27:50;9.70;;;2.40;;
49241;SDS011;35079;52.704;13.814;2023-12-20T12:30:16;10.52;;;2.60;;
49241;SDS011;35079;52.704;13.814;2023-12-20T12:32:43;9.45;;;2.40;;
49241;SDS011;35079;52.704;13.814;2023-12-20T12:35:10;13.50;;;2.50;;
49241;SDS011;35079;52.704;13.814;2023-12-20T12:37:39;17.63;;;2.92;;
49241;SDS011;35079;52.704;13.814;2023-12-20T12:40:06;11.05;;;2.50;;
49241;SDS011;35079;52.704;13.814;2023-12-20T12:42:35;10.40;;;2.50;;
49241;SDS011;35079;52.704;13.814;2023-12-20T12:45:02;10.10;;;2.53;;
49241;SDS011;35079;52.704;13.814;2023-12-20T12:47:28;11.90;;;2.53;;
49241;SDS011;35079;52.704;13.814;2023-12-20T12:49:54;10.88;;;2.15;;
49241;SDS011;35079;52.704;13.814;2023-12-20T12:52:19;9.82;;;2.00;;
49241;SDS011;35079;52.704;13.814;2023-12-20T12:54:45;10.32;;;2.20;;
49241;SDS011;35079;52.704;13.814;2023-12-20T12:57:12;11.15;;;2.47;;
49241;SDS011;35079;52.704;13.814;2023-12-20T12:59:38;12.27;;;2.35;;
49241;SDS011;35079;52.704;13.814;2023-12-20T13:02:05;12.10;;;2.25;;
49241;SDS011;35079;52.704;13.814;2023-12-20T13:04:30;13.85;;;2.67;;
49241;SDS011;35079;52.704;13.814;2023-12-20T13:06:56;11.77;;;2.92;;
49241;SDS011;35079;52.704;13.814;2023-12-20T13:09:22;13.63;;;2.80;;
49241;SDS011;35079;52.704;13.814;2023-12-20T13:11:48;17.75;;;2.95;;
49241;SDS011;35079;52.704;13.814;2023-12-20T13:14:13;11.35;;;2.40;;
49241;SDS011;35079;52.704;13.814;2023-12-20T13:16:41;9.10;;;2.05;;
49241;SDS011;35079;52.704;13.814;2023-12-20T13:19:10;14.07;;;2.70;;
49241;SDS011;35079;52.704;13.814;2023-12-20T13:21:35;7.07;;;2.38;;
49241;SDS011;35079;52.704;13.814;2023-12-20T13:24:01;13.88;;;2.72;;
49241;SDS011;35079;52.704;13.814;2023-12-20T13:26:27;6.25;;;1.52;;
49241;SDS011;35079;52.704;13.814;2023-12-20T13:28:53;9.35;;;1.20;;
49241;SDS011;35079;52.704;13.814;2023-12-20T13:31:19;8.23;;;1.33;;
49241;SDS011;35079;52.704;13.814;2023-12-20T13:33:45;2.78;;;0.93;;
49241;SDS011;35079;52.704;13.814;2023-12-20T13:36:11;5.75;;;0.90;;
49241;SDS011;35079;52.704;13.814;2023-12-20T13:38:37;1.98;;;0.70;;
49241;SDS011;35079;52.704;13.814;2023-12-20T13:41:03;5.30;;;1.00;;
49241;SDS011;35079;52.704;13.814;2023-12-20T13:43:30;10.77;;;1.10;;
49241;SDS011;35079;52.704;13.814;2023-12-20T13:45:57;2.92;;;0.80;;
49241;SDS011;35079;52.704;13.814;2023-12-20T13:48:23;3.03;;;0.93;;
49241;SDS011;35079;52.704;13.814;2023-12-20T13:50:49;4.00;;;1.20;;
49241;SDS011;35079;52.704;13.814;2023-12-20T13:53:15;3.53;;;0.80;;
49241;SDS011;35079;52.704;13.814;2023-12-20T13:55:41;7.47;;;0.75;;
49241;SDS011;35079;52.704;13.814;2023-12-20T13:58:06;3.33;;;0.77;;
49241;SDS011;35079;52.704;13.814;2023-12-20T14:00:32;2.60;;;0.90;;
49241;SDS011;35079;52.704;13.814;2023-12-20T14:02:57;3.17;;;0.60;;
49241;SDS011;35079;52.704;13.814;2023-12-20T14:05:23;5.80;;;1.00;;
49241;SDS011;35079;52.704;13.814;2023-12-20T14:07:49;4.82;;;1.10;;
49241;SDS011;35079;52.704;13.814;2023-12-20T14:10:15;2.97;;;0.88;;
49241;SDS011;35079;52.704;13.814;2023-12-20T14:12:41;5.68;;;1.27;;
49241;SDS011;35079;52.704;13.814;2023-12-20T14:15:07;5.53;;;0.90;;
49241;SDS011;35079;52.704;13.814;2023-12-20T14:17:38;4.43;;;1.05;;
49241;SDS011;35079;52.704;13.814;2023-12-20T14:20:05;5.43;;;0.98;;
49241;SDS011;35079;52.704;13.814;2023-12-20T14:22:31;7.68;;;1.30;;
49241;SDS011;35079;52.704;13.814;2023-12-20T14:24:57;3.95;;;1.10;;
49241;SDS011;35079;52.704;13.814;2023-12-20T14:27:23;3.83;;;0.85;;
49241;SDS011;35079;52.704;13.814;2023-12-20T14:29:53;4.03;;;1.38;;
49241;SDS011;35079;52.704;13.814;2023-12-20T14:32:19;3.90;;;0.80;;